sensor_id;sensor_type;location;lat;lon;timestamp;pressure;altitude;pressure_sealevel;temperature
42197;BMP280;27866;48.146;17.098;2022-12-18T00:03:25;101199.28;;;1.49
42197;BMP280;27866;48.146;17.098;2022-12-18T00:07:36;101195.06;;;1.47
42197;BMP280;27866;48.146;17.098;2022-12-18T00:11:47;101197.63;;;1.44
42197;BMP280;27866;48.146;17.098;2022-12-18T00:16:04;101199.34;;;1.45
42197;BMP280;27866;48.146;17.098;2022-12-18T00:20:16;101193.38;;;1.44
42197;BMP280;27866;48.146;17.098;2022-12-18T00:24:32;101196.78;;;1.45
42197;BMP280;27866;48.146;17.098;2022-12-18T00:28:44;101204.47;;;1.44
42197;BMP280;27866;48.146;17.098;2022-12-18T00:32:55;101212.16;;;1.39
42197;BMP280;27866;48.146;17.098;2022-12-18T00:37:10;101216.47;;;1.36
42197;BMP280;27866;48.146;17.098;2022-12-18T00:41:21;101229.19;;;1.34
42197;BMP280;27866;48.146;17.098;2022-12-18T00:45:51;101228.38;;;1.32
42197;BMP280;27866;48.146;17.098;2022-12-18T00:50:03;101228.38;;;1.31
42197;BMP280;27866;48.146;17.098;2022-12-18T00:54:15;101225.84;;;1.30
42197;BMP280;27866;48.146;17.098;2022-12-18T00:58:27;101233.50;;;1.31
42197;BMP280;27866;48.146;17.098;2022-12-18T01:02:38;101241.13;;;1.32
42197;BMP280;27866;48.146;17.098;2022-12-18T01:06:51;101247.13;;;1.30
42197;BMP280;27866;48.146;17.098;2022-12-18T01:11:12;101250.56;;;1.26
42197;BMP280;27866;48.146;17.098;2022-12-18T01:15:24;101254.00;;;1.22
42197;BMP280;27866;48.146;17.098;2022-12-18T01:19:36;101249.75;;;1.20
42197;BMP280;27866;48.146;17.098;2022-12-18T01:23:55;101253.19;;;1.19
42197;BMP280;27866;48.146;17.098;2022-12-18T01:28:08;101260.81;;;1.17
42197;BMP280;27866;48.146;17.098;2022-12-18T01:32:20;101262.53;;;1.15
42197;BMP280;27866;48.146;17.098;2022-12-18T01:36:34;101266.00;;;1.13
42197;BMP280;27866;48.146;17.098;2022-12-18T01:40:45;101271.06;;;1.12
42197;BMP280;27866;48.146;17.098;2022-12-18T01:45:24;101276.22;;;1.09
42197;BMP280;27866;48.146;17.098;2022-12-18T01:49:35;101277.94;;;1.05
42197;BMP280;27866;48.146;17.098;2022-12-18T01:53:48;101290.69;;;1.04
42197;BMP280;27866;48.146;17.098;2022-12-18T01:58:00;101298.38;;;1.01
42197;BMP280;27866;48.146;17.098;2022-12-18T02:02:12;101296.72;;;0.97
42197;BMP280;27866;48.146;17.098;2022-12-18T02:06:39;101297.56;;;0.98
42197;BMP280;27866;48.146;17.098;2022-12-18T02:15:52;101314.59;;;0.91
42197;BMP280;27866;48.146;17.098;2022-12-18T02:29:08;101343.53;;;0.87
42197;BMP280;27866;48.146;17.098;2022-12-18T02:33:23;101334.19;;;0.84
42197;BMP280;27866;48.146;17.098;2022-12-18T02:37:35;101342.72;;;0.83
42197;BMP280;27866;48.146;17.098;2022-12-18T02:41:51;101337.63;;;0.80
42197;BMP280;27866;48.146;17.098;2022-12-18T02:46:27;101339.34;;;0.75
42197;BMP280;27866;48.146;17.098;2022-12-18T02:50:56;101355.53;;;0.71
42197;BMP280;27866;48.146;17.098;2022-12-18T03:00:05;101362.34;;;0.68
42197;BMP280;27866;48.146;17.098;2022-12-18T03:08:47;101376.81;;;0.60
42197;BMP280;27866;48.146;17.098;2022-12-18T03:13:52;101370.88;;;0.54
42197;BMP280;27866;48.146;17.098;2022-12-18T03:18:18;101371.78;;;0.47
42197;BMP280;27866;48.146;17.098;2022-12-18T03:22:33;101373.50;;;0.45
42197;BMP280;27866;48.146;17.098;2022-12-18T03:26:49;101380.25;;;0.46
42197;BMP280;27866;48.146;17.098;2022-12-18T03:31:04;101367.53;;;0.40
42197;BMP280;27866;48.146;17.098;2022-12-18T03:35:24;101368.41;;;0.36
42197;BMP280;27866;48.146;17.098;2022-12-18T03:39:37;101358.25;;;0.33
42197;BMP280;27866;48.146;17.098;2022-12-18T03:48:58;101371.81;;;0.27
42197;BMP280;27866;48.146;17.098;2022-12-18T03:58:25;101365.06;;;0.23
42197;BMP280;27866;48.146;17.098;2022-12-18T04:02:50;101391.38;;;0.23
42197;BMP280;27866;48.146;17.098;2022-12-18T04:07:08;101399.00;;;0.23
42197;BMP280;27866;48.146;17.098;2022-12-18T04:11:22;101396.50;;;0.20
42197;BMP280;27866;48.146;17.098;2022-12-18T04:15:35;101402.47;;;0.15
42197;BMP280;27866;48.146;17.098;2022-12-18T04:19:48;101405.84;;;0.14
42197;BMP280;27866;48.146;17.098;2022-12-18T04:24:00;101410.94;;;0.14
42197;BMP280;27866;48.146;17.098;2022-12-18T04:28:13;101418.56;;;0.10
42197;BMP280;27866;48.146;17.098;2022-12-18T04:32:25;101409.25;;;0.04
42197;BMP280;27866;48.146;17.098;2022-12-18T04:36:37;101426.22;;;0.02
42197;BMP280;27866;48.146;17.098;2022-12-18T04:40:48;101433.88;;;-0.00
42197;BMP280;27866;48.146;17.098;2022-12-18T04:45:07;101442.34;;;-0.03
42197;BMP280;27866;48.146;17.098;2022-12-18T04:49:19;101434.72;;;-0.01
42197;BMP280;27866;48.146;17.098;2022-12-18T04:53:30;101442.34;;;-0.01
42197;BMP280;27866;48.146;17.098;2022-12-18T04:57:41;101457.63;;;-0.03
42197;BMP280;27866;48.146;17.098;2022-12-18T05:01:52;101454.25;;;-0.06
42197;BMP280;27866;48.146;17.098;2022-12-18T05:06:06;101458.50;;;-0.04
42197;BMP280;27866;48.146;17.098;2022-12-18T05:10:17;101459.34;;;-0.02
42197;BMP280;27866;48.146;17.098;2022-12-18T05:14:28;101470.38;;;-0.04
42197;BMP280;27866;48.146;17.098;2022-12-18T05:18:40;101480.53;;;-0.13
42197;BMP280;27866;48.146;17.098;2022-12-18T05:22:53;101480.53;;;-0.20
42197;BMP280;27866;48.146;17.098;2022-12-18T05:27:04;101483.09;;;-0.26
42197;BMP280;27866;48.146;17.098;2022-12-18T05:31:15;101485.66;;;-0.30
42197;BMP280;27866;48.146;17.098;2022-12-18T05:35:26;101500.06;;;-0.29
42197;BMP280;27866;48.146;17.098;2022-12-18T05:39:37;101490.72;;;-0.35
42197;BMP280;27866;48.146;17.098;2022-12-18T05:43:49;101490.72;;;-0.39
42197;BMP280;27866;48.146;17.098;2022-12-18T05:48:00;101494.94;;;-0.43
42197;BMP280;27866;48.146;17.098;2022-12-18T05:52:11;101505.97;;;-0.45
42197;BMP280;27866;48.146;17.098;2022-12-18T05:56:23;101499.19;;;-0.47
42197;BMP280;27866;48.146;17.098;2022-12-18T06:00:40;101500.88;;;-0.39
42197;BMP280;27866;48.146;17.098;2022-12-18T06:04:51;101511.06;;;-0.38
42197;BMP280;27866;48.146;17.098;2022-12-18T06:09:03;101512.78;;;-0.38
42197;BMP280;27866;48.146;17.098;2022-12-18T06:13:21;101513.59;;;-0.46
42197;BMP280;27866;48.146;17.098;2022-12-18T06:17:33;101517.03;;;-0.42
42197;BMP280;27866;48.146;17.098;2022-12-18T06:21:44;101529.72;;;-0.37
42197;BMP280;27866;48.146;17.098;2022-12-18T06:25:55;101529.72;;;-0.39
42197;BMP280;27866;48.146;17.098;2022-12-18T06:30:08;101527.16;;;-0.43
42197;BMP280;27866;48.146;17.098;2022-12-18T06:34:19;101533.13;;;-0.44
42197;BMP280;27866;48.146;17.098;2022-12-18T06:38:36;101548.38;;;-0.50
42197;BMP280;27866;48.146;17.098;2022-12-18T06:42:48;101544.97;;;-0.50
42197;BMP280;27866;48.146;17.098;2022-12-18T06:46:59;101556.00;;;-0.51
42197;BMP280;27866;48.146;17.098;2022-12-18T06:51:10;101559.41;;;-0.49
42197;BMP280;27866;48.146;17.098;2022-12-18T06:55:21;101562.78;;;-0.43
42197;BMP280;27866;48.146;17.098;2022-12-18T06:59:32;101580.63;;;-0.37
42197;BMP280;27866;48.146;17.098;2022-12-18T07:03:44;101592.50;;;-0.39
42197;BMP280;27866;48.146;17.098;2022-12-18T07:07:55;101596.75;;;-0.34
42197;BMP280;27866;48.146;17.098;2022-12-18T07:12:06;101607.81;;;-0.25
42197;BMP280;27866;48.146;17.098;2022-12-18T07:16:21;101611.22;;;-0.14
42197;BMP280;27866;48.146;17.098;2022-12-18T07:20:32;101620.59;;;0.04
42197;BMP280;27866;48.146;17.098;2022-12-18T07:24:43;101618.06;;;0.14
42197;BMP280;27866;48.146;17.098;2022-12-18T07:28:56;101623.16;;;0.22
42197;BMP280;27866;48.146;17.098;2022-12-18T07:33:08;101638.47;;;0.38
42197;BMP280;27866;48.146;17.098;2022-12-18T07:37:19;101639.31;;;0.43
42197;BMP280;27866;48.146;17.098;2022-12-18T07:41:30;101651.22;;;0.48
42197;BMP280;27866;48.146;17.098;2022-12-18T07:45:44;101658.88;;;0.57
42197;BMP280;27866;48.146;17.098;2022-12-18T07:49:55;101646.94;;;0.64
42197;BMP280;27866;48.146;17.098;2022-12-18T07:54:06;101652.03;;;0.82
42197;BMP280;27866;48.146;17.098;2022-12-18T07:58:18;101656.28;;;0.97
42197;BMP280;27866;48.146;17.098;2022-12-18T08:02:31;101657.09;;;1.16
42197;BMP280;27866;48.146;17.098;2022-12-18T08:06:42;101666.41;;;1.30
42197;BMP280;27866;48.146;17.098;2022-12-18T08:10:53;101661.25;;;1.48
42197;BMP280;27866;48.146;17.098;2022-12-18T08:15:06;101677.38;;;1.63
42197;BMP280;27866;48.146;17.098;2022-12-18T08:19:17;101673.09;;;1.73
42197;BMP280;27866;48.146;17.098;2022-12-18T08:23:28;101671.28;;;1.94
42197;BMP280;27866;48.146;17.098;2022-12-18T08:27:39;101666.06;;;2.15
42197;BMP280;27866;48.146;17.098;2022-12-18T08:31:51;101679.47;;;2.48
42197;BMP280;27866;48.146;17.098;2022-12-18T08:36:03;101688.56;;;2.84
42197;BMP280;27866;48.146;17.098;2022-12-18T08:40:15;101682.53;;;2.89
42197;BMP280;27866;48.146;17.098;2022-12-18T08:44:26;101671.56;;;2.77
42197;BMP280;27866;48.146;17.098;2022-12-18T08:48:53;101683.47;;;2.80
42197;BMP280;27866;48.146;17.098;2022-12-18T08:53:06;101683.44;;;2.83
42197;BMP280;27866;48.146;17.098;2022-12-18T08:57:18;101687.53;;;3.04
42197;BMP280;27866;48.146;17.098;2022-12-18T09:01:29;101690.75;;;3.25
42197;BMP280;27866;48.146;17.098;2022-12-18T09:05:40;101698.06;;;3.58
42197;BMP280;27866;48.146;17.098;2022-12-18T09:09:51;101696.56;;;4.08
42197;BMP280;27866;48.146;17.098;2022-12-18T09:14:03;101701.69;;;4.08
42197;BMP280;27866;48.146;17.098;2022-12-18T09:18:15;101700.75;;;4.15
42197;BMP280;27866;48.146;17.098;2022-12-18T09:22:26;101697.66;;;4.50
42197;BMP280;27866;48.146;17.098;2022-12-18T09:26:38;101685.84;;;4.42
42197;BMP280;27866;48.146;17.098;2022-12-18T09:30:49;101695.31;;;4.37
42197;BMP280;27866;48.146;17.098;2022-12-18T09:35:00;101705.81;;;4.77
42197;BMP280;27866;48.146;17.098;2022-12-18T09:39:12;101689.44;;;5.32
42197;BMP280;27866;48.146;17.098;2022-12-18T09:47:40;101697.13;;;5.35
42197;BMP280;27866;48.146;17.098;2022-12-18T09:52:09;101695.38;;;5.35
42197;BMP280;27866;48.146;17.098;2022-12-18T09:56:21;101688.44;;;5.40
42197;BMP280;27866;48.146;17.098;2022-12-18T10:00:34;101692.06;;;5.30
42197;BMP280;27866;48.146;17.098;2022-12-18T10:09:40;101678.06;;;5.46
42197;BMP280;27866;48.146;17.098;2022-12-18T10:14:35;101680.34;;;5.60
42197;BMP280;27866;48.146;17.098;2022-12-18T10:19:22;101672.91;;;5.00
42197;BMP280;27866;48.146;17.098;2022-12-18T10:23:56;101683.63;;;4.74
42197;BMP280;27866;48.146;17.098;2022-12-18T10:28:16;101686.19;;;4.74
42197;BMP280;27866;48.146;17.098;2022-12-18T10:32:30;101677.41;;;4.87
42197;BMP280;27866;48.146;17.098;2022-12-18T10:36:42;101678.84;;;5.04
42197;BMP280;27866;48.146;17.098;2022-12-18T10:45:17;101654.28;;;5.35
42197;BMP280;27866;48.146;17.098;2022-12-18T10:49:33;101661.72;;;5.49
42197;BMP280;27866;48.146;17.098;2022-12-18T10:54:06;101652.38;;;5.46
42197;BMP280;27866;48.146;17.098;2022-12-18T10:58:27;101646.88;;;5.64
42197;BMP280;27866;48.146;17.098;2022-12-18T11:02:39;101654.63;;;5.60
42197;BMP280;27866;48.146;17.098;2022-12-18T11:06:54;101651.66;;;5.36
42197;BMP280;27866;48.146;17.098;2022-12-18T11:11:35;101650.53;;;5.08
42197;BMP280;27866;48.146;17.098;2022-12-18T11:15:48;101650.00;;;4.89
42197;BMP280;27866;48.146;17.098;2022-12-18T11:20:03;101644.66;;;5.00
42197;BMP280;27866;48.146;17.098;2022-12-18T11:24:34;101631.75;;;5.49
42197;BMP280;27866;48.146;17.098;2022-12-18T11:29:07;101638.53;;;5.93
42197;BMP280;27866;48.146;17.098;2022-12-18T11:33:23;101629.63;;;6.44
42197;BMP280;27866;48.146;17.098;2022-12-18T11:37:34;101634.56;;;6.18
42197;BMP280;27866;48.146;17.098;2022-12-18T11:42:20;101634.72;;;5.71
42197;BMP280;27866;48.146;17.098;2022-12-18T11:46:46;101630.81;;;5.52
42197;BMP280;27866;48.146;17.098;2022-12-18T11:51:02;101639.94;;;5.24
42197;BMP280;27866;48.146;17.098;2022-12-18T12:00:14;101644.22;;;5.67
42197;BMP280;27866;48.146;17.098;2022-12-18T12:19:00;101635.50;;;5.76
42197;BMP280;27866;48.146;17.098;2022-12-18T12:41:59;101635.56;;;4.29
42197;BMP280;27866;48.146;17.098;2022-12-18T12:46:32;101631.41;;;4.22
42197;BMP280;27866;48.146;17.098;2022-12-18T12:50:46;101646.13;;;4.10
42197;BMP280;27866;48.146;17.098;2022-12-18T12:54:59;101639.41;;;4.04
42197;BMP280;27866;48.146;17.098;2022-12-18T13:00:15;101623.28;;;3.96
42197;BMP280;27866;48.146;17.098;2022-12-18T13:04:36;101628.41;;;3.94
42197;BMP280;27866;48.146;17.098;2022-12-18T13:08:57;101632.69;;;3.94
42197;BMP280;27866;48.146;17.098;2022-12-18T13:13:11;101648.13;;;3.91
42197;BMP280;27866;48.146;17.098;2022-12-18T13:17:28;101650.75;;;3.85
42197;BMP280;27866;48.146;17.098;2022-12-18T13:21:40;101643.09;;;3.82
42197;BMP280;27866;48.146;17.098;2022-12-18T13:34:43;101677.31;;;3.78
42197;BMP280;27866;48.146;17.098;2022-12-18T13:43:52;101676.47;;;3.76
42197;BMP280;27866;48.146;17.098;2022-12-18T13:48:04;101676.44;;;3.78
42197;BMP280;27866;48.146;17.098;2022-12-18T13:52:22;101682.47;;;3.74
42197;BMP280;27866;48.146;17.098;2022-12-18T13:56:33;101686.88;;;3.66
42197;BMP280;27866;48.146;17.098;2022-12-18T14:00:45;101686.06;;;3.60
42197;BMP280;27866;48.146;17.098;2022-12-18T14:04:56;101697.31;;;3.49
42197;BMP280;27866;48.146;17.098;2022-12-18T14:09:16;101698.22;;;3.44
42197;BMP280;27866;48.146;17.098;2022-12-18T14:13:35;101709.41;;;3.32
42197;BMP280;27866;48.146;17.098;2022-12-18T14:17:47;101708.66;;;3.25
42197;BMP280;27866;48.146;17.098;2022-12-18T14:22:00;101718.94;;;3.17
42197;BMP280;27866;48.146;17.098;2022-12-18T14:26:30;101711.31;;;3.12
42197;BMP280;27866;48.146;17.098;2022-12-18T14:30:45;101716.53;;;3.06
42197;BMP280;27866;48.146;17.098;2022-12-18T14:34:56;101716.56;;;3.00
42197;BMP280;27866;48.146;17.098;2022-12-18T14:39:17;101732.81;;;2.93
42197;BMP280;27866;48.146;17.098;2022-12-18T14:43:33;101731.25;;;2.76
42197;BMP280;27866;48.146;17.098;2022-12-18T14:47:44;101729.63;;;2.65
42197;BMP280;27866;48.146;17.098;2022-12-18T14:52:02;101734.81;;;2.54
42197;BMP280;27866;48.146;17.098;2022-12-18T14:56:23;101738.25;;;2.50
42197;BMP280;27866;48.146;17.098;2022-12-18T15:00:41;101738.28;;;2.44
42197;BMP280;27866;48.146;17.098;2022-12-18T15:09:25;101740.06;;;2.33
42197;BMP280;27866;48.146;17.098;2022-12-18T15:13:37;101741.75;;;2.34
42197;BMP280;27866;48.146;17.098;2022-12-18T15:17:48;101745.13;;;2.36
42197;BMP280;27866;48.146;17.098;2022-12-18T15:21:59;101748.59;;;2.30
42197;BMP280;27866;48.146;17.098;2022-12-18T15:26:13;101758.00;;;2.23
42197;BMP280;27866;48.146;17.098;2022-12-18T15:30:26;101764.81;;;2.21
42197;BMP280;27866;48.146;17.098;2022-12-18T15:34:37;101766.53;;;2.22
42197;BMP280;27866;48.146;17.098;2022-12-18T15:38:53;101772.38;;;2.40
42197;BMP280;27866;48.146;17.098;2022-12-18T15:43:07;101761.06;;;2.80
42197;BMP280;27866;48.146;17.098;2022-12-18T15:47:38;101744.59;;;3.15
42197;BMP280;27866;48.146;17.098;2022-12-18T15:51:57;101753.78;;;3.36
42197;BMP280;27866;48.146;17.098;2022-12-18T15:56:11;101743.41;;;3.46
42197;BMP280;27866;48.146;17.098;2022-12-18T16:00:41;101748.41;;;3.58
42197;BMP280;27866;48.146;17.098;2022-12-18T16:04:52;101746.53;;;3.74
42197;BMP280;27866;48.146;17.098;2022-12-18T16:09:05;101754.09;;;3.84
42197;BMP280;27866;48.146;17.098;2022-12-18T16:13:18;101760.94;;;3.85
42197;BMP280;27866;48.146;17.098;2022-12-18T16:17:30;101757.53;;;3.85
42197;BMP280;27866;48.146;17.098;2022-12-18T16:21:42;101763.53;;;3.81
42197;BMP280;27866;48.146;17.098;2022-12-18T16:25:53;101768.63;;;3.84
42197;BMP280;27866;48.146;17.098;2022-12-18T16:30:06;101776.31;;;3.85
42197;BMP280;27866;48.146;17.098;2022-12-18T16:34:42;101779.72;;;3.84
42197;BMP280;27866;48.146;17.098;2022-12-18T16:38:54;101783.16;;;3.85
42197;BMP280;27866;48.146;17.098;2022-12-18T16:43:05;101787.41;;;3.84
42197;BMP280;27866;48.146;17.098;2022-12-18T16:47:18;101794.25;;;3.84
42197;BMP280;27866;48.146;17.098;2022-12-18T16:51:29;101779.72;;;3.87
42197;BMP280;27866;48.146;17.098;2022-12-18T16:55:43;101773.75;;;3.85
42197;BMP280;27866;48.146;17.098;2022-12-18T16:59:54;101763.50;;;3.87
42197;BMP280;27866;48.146;17.098;2022-12-18T17:04:07;101764.34;;;3.87
42197;BMP280;27866;48.146;17.098;2022-12-18T17:08:18;101767.75;;;3.89
42197;BMP280;27866;48.146;17.098;2022-12-18T17:12:30;101778.00;;;3.86
42197;BMP280;27866;48.146;17.098;2022-12-18T17:16:41;101772.94;;;3.83
42197;BMP280;27866;48.146;17.098;2022-12-18T17:21:01;101771.25;;;3.79
42197;BMP280;27866;48.146;17.098;2022-12-18T17:25:12;101780.66;;;3.76
42197;BMP280;27866;48.146;17.098;2022-12-18T17:29:24;101771.28;;;3.76
42197;BMP280;27866;48.146;17.098;2022-12-18T17:33:35;101773.06;;;3.72
42197;BMP280;27866;48.146;17.098;2022-12-18T17:37:46;101775.75;;;3.57
42197;BMP280;27866;48.146;17.098;2022-12-18T17:41:58;101791.09;;;3.60
42197;BMP280;27866;48.146;17.098;2022-12-18T17:46:10;101784.22;;;3.66
42197;BMP280;27866;48.146;17.098;2022-12-18T17:50:22;101793.53;;;3.72
42197;BMP280;27866;48.146;17.098;2022-12-18T17:54:33;101801.34;;;3.60
42197;BMP280;27866;48.146;17.098;2022-12-18T17:58:45;101795.34;;;3.64
42197;BMP280;27866;48.146;17.098;2022-12-18T18:02:57;101788.53;;;3.60
42197;BMP280;27866;48.146;17.098;2022-12-18T18:07:09;101790.22;;;3.62
42197;BMP280;27866;48.146;17.098;2022-12-18T18:11:22;101789.22;;;3.75
42197;BMP280;27866;48.146;17.098;2022-12-18T18:15:58;101795.22;;;3.76
42197;BMP280;27866;48.146;17.098;2022-12-18T18:20:09;101786.75;;;3.65
42197;BMP280;27866;48.146;17.098;2022-12-18T18:24:22;101789.31;;;3.65
42197;BMP280;27866;48.146;17.098;2022-12-18T18:28:34;101790.25;;;3.58
42197;BMP280;27866;48.146;17.098;2022-12-18T18:32:45;101797.09;;;3.58
42197;BMP280;27866;48.146;17.098;2022-12-18T18:36:58;101790.25;;;3.58
42197;BMP280;27866;48.146;17.098;2022-12-18T18:41:10;101791.13;;;3.56
42197;BMP280;27866;48.146;17.098;2022-12-18T18:45:21;101797.16;;;3.50
42197;BMP280;27866;48.146;17.098;2022-12-18T18:49:32;101802.34;;;3.47
42197;BMP280;27866;48.146;17.098;2022-12-18T18:53:46;101802.34;;;3.47
42197;BMP280;27866;48.146;17.098;2022-12-18T18:57:57;101807.31;;;3.59
42197;BMP280;27866;48.146;17.098;2022-12-18T19:02:13;101822.63;;;3.65
42197;BMP280;27866;48.146;17.098;2022-12-18T19:06:26;101814.16;;;3.57
42197;BMP280;27866;48.146;17.098;2022-12-18T19:10:39;101827.03;;;3.51
42197;BMP280;27866;48.146;17.098;2022-12-18T19:14:53;101823.56;;;3.55
42197;BMP280;27866;48.146;17.098;2022-12-18T19:19:05;101810.78;;;3.54
42197;BMP280;27866;48.146;17.098;2022-12-18T19:23:16;101812.53;;;3.50
42197;BMP280;27866;48.146;17.098;2022-12-18T19:27:28;101819.34;;;3.53
42197;BMP280;27866;48.146;17.098;2022-12-18T19:31:39;101817.66;;;3.50
42197;BMP280;27866;48.146;17.098;2022-12-18T19:35:51;101815.09;;;3.50
42197;BMP280;27866;48.146;17.098;2022-12-18T19:40:02;101817.66;;;3.50
42197;BMP280;27866;48.146;17.098;2022-12-18T19:44:16;101822.78;;;3.50
42197;BMP280;27866;48.146;17.098;2022-12-18T19:48:27;101818.41;;;3.60
42197;BMP280;27866;48.146;17.098;2022-12-18T19:52:38;101823.59;;;3.57
42197;BMP280;27866;48.146;17.098;2022-12-18T19:56:49;101818.41;;;3.60
42197;BMP280;27866;48.146;17.098;2022-12-18T20:01:03;101832.03;;;3.66
42197;BMP280;27866;48.146;17.098;2022-12-18T20:05:14;101848.28;;;3.59
42197;BMP280;27866;48.146;17.098;2022-12-18T20:09:25;101855.19;;;3.51
42197;BMP280;27866;48.146;17.098;2022-12-18T20:13:37;101850.09;;;3.50
42197;BMP280;27866;48.146;17.098;2022-12-18T20:17:48;101852.72;;;3.46
42197;BMP280;27866;48.146;17.098;2022-12-18T20:21:59;101845.97;;;3.33
42197;BMP280;27866;48.146;17.098;2022-12-18T20:26:10;101826.44;;;3.17
42197;BMP280;27866;48.146;17.098;2022-12-18T20:30:21;101835.97;;;3.04
42197;BMP280;27866;48.146;17.098;2022-12-18T20:34:33;101840.28;;;2.93
42197;BMP280;27866;48.146;17.098;2022-12-18T20:38:44;101846.38;;;2.72
42197;BMP280;27866;48.146;17.098;2022-12-18T20:42:55;101851.59;;;2.55
42197;BMP280;27866;48.146;17.098;2022-12-18T20:47:06;101839.72;;;2.39
42197;BMP280;27866;48.146;17.098;2022-12-18T20:51:20;101849.16;;;2.26
42197;BMP280;27866;48.146;17.098;2022-12-18T20:55:31;101836.41;;;2.13
42197;BMP280;27866;48.146;17.098;2022-12-18T20:59:42;101839.88;;;2.02
42197;BMP280;27866;48.146;17.098;2022-12-18T21:03:53;101839.88;;;1.93
42197;BMP280;27866;48.146;17.098;2022-12-18T21:08:05;101839.06;;;1.87
42197;BMP280;27866;48.146;17.098;2022-12-18T21:12:16;101836.50;;;1.76
42197;BMP280;27866;48.146;17.098;2022-12-18T21:16:49;101839.94;;;1.70
42197;BMP280;27866;48.146;17.098;2022-12-18T21:21:00;101840.78;;;1.60
42197;BMP280;27866;48.146;17.098;2022-12-18T21:25:12;101829.72;;;1.49
42197;BMP280;27866;48.146;17.098;2022-12-18T21:29:24;101828.88;;;1.47
42197;BMP280;27866;48.146;17.098;2022-12-18T21:33:36;101830.56;;;1.44
42197;BMP280;27866;48.146;17.098;2022-12-18T21:37:47;101817.00;;;1.39
42197;BMP280;27866;48.146;17.098;2022-12-18T21:41:58;101829.75;;;1.35
42197;BMP280;27866;48.146;17.098;2022-12-18T21:46:37;101832.28;;;1.29
42197;BMP280;27866;48.146;17.098;2022-12-18T21:50:48;101845.03;;;1.22
42197;BMP280;27866;48.146;17.098;2022-12-18T21:55:01;101835.69;;;1.19
42197;BMP280;27866;48.146;17.098;2022-12-18T21:59:22;101837.38;;;1.17
42197;BMP280;27866;48.146;17.098;2022-12-18T22:03:33;101841.63;;;1.13
42197;BMP280;27866;48.146;17.098;2022-12-18T22:07:44;101839.94;;;1.15
42197;BMP280;27866;48.146;17.098;2022-12-18T22:11:56;101842.47;;;1.17
42197;BMP280;27866;48.146;17.098;2022-12-18T22:16:07;101845.03;;;1.16
42197;BMP280;27866;48.146;17.098;2022-12-18T22:20:18;101844.19;;;1.13
42197;BMP280;27866;48.146;17.098;2022-12-18T22:24:29;101828.88;;;1.10
42197;BMP280;27866;48.146;17.098;2022-12-18T22:28:40;101827.19;;;1.09
42197;BMP280;27866;48.146;17.098;2022-12-18T22:33:10;101839.94;;;1.15
42197;BMP280;27866;48.146;17.098;2022-12-18T22:37:22;101828.03;;;1.09
42197;BMP280;27866;48.146;17.098;2022-12-18T22:41:33;101815.25;;;1.08
42197;BMP280;27866;48.146;17.098;2022-12-18T22:45:44;101828.88;;;1.07
42197;BMP280;27866;48.146;17.098;2022-12-18T22:49:57;101812.75;;;1.09
42197;BMP280;27866;48.146;17.098;2022-12-18T22:54:08;101807.63;;;1.09
42197;BMP280;27866;48.146;17.098;2022-12-18T22:58:20;101804.22;;;1.13
42197;BMP280;27866;48.146;17.098;2022-12-18T23:02:31;101808.47;;;1.18
42197;BMP280;27866;48.146;17.098;2022-12-18T23:06:43;101811.88;;;1.17
42197;BMP280;27866;48.146;17.098;2022-12-18T23:10:54;101793.16;;;1.15
42197;BMP280;27866;48.146;17.098;2022-12-18T23:15:06;101796.56;;;1.17
42197;BMP280;27866;48.146;17.098;2022-12-18T23:19:17;101793.16;;;1.21
42197;BMP280;27866;48.146;17.098;2022-12-18T23:23:28;101794.03;;;1.19
42197;BMP280;27866;48.146;17.098;2022-12-18T23:27:39;101787.22;;;1.22
42197;BMP280;27866;48.146;17.098;2022-12-18T23:31:50;101772.75;;;1.33
42197;BMP280;27866;48.146;17.098;2022-12-18T23:36:03;101765.09;;;1.30
42197;BMP280;27866;48.146;17.098;2022-12-18T23:40:14;101772.72;;;1.34
42197;BMP280;27866;48.146;17.098;2022-12-18T23:44:25;101765.94;;;1.30
42197;BMP280;27866;48.146;17.098;2022-12-18T23:48:38;101771.88;;;1.32
42197;BMP280;27866;48.146;17.098;2022-12-18T23:52:49;101774.47;;;1.34
42197;BMP280;27866;48.146;17.098;2022-12-18T23:57:00;101776.16;;;1.32
